sensor_id;sensor_type;location;lat;lon;timestamp;P1;durP1;ratioP1;P2;durP2;ratioP2
51612;SDS011;37694;51.748;14.326;2023-05-07T00:02:21;7.22;;;4.50;;
51612;SDS011;37694;51.748;14.326;2023-05-07T00:04:47;7.97;;;4.40;;
51612;SDS011;37694;51.748;14.326;2023-05-07T00:07:13;11.27;;;4.50;;
51612;SDS011;37694;51.748;14.326;2023-05-07T00:09:40;7.35;;;5.22;;
51612;SDS011;37694;51.748;14.326;2023-05-07T00:12:06;9.23;;;4.40;;
51612;SDS011;37694;51.748;14.326;2023-05-07T00:14:32;7.28;;;5.00;;
51612;SDS011;37694;51.748;14.326;2023-05-07T00:16:58;11.45;;;4.78;;
51612;SDS011;37694;51.748;14.326;2023-05-07T00:19:24;7.90;;;4.38;;
51612;SDS011;37694;51.748;14.326;2023-05-07T00:21:50;5.05;;;4.40;;
51612;SDS011;37694;51.748;14.326;2023-05-07T00:24:18;7.88;;;4.68;;
51612;SDS011;37694;51.748;14.326;2023-05-07T00:26:44;7.28;;;5.15;;
51612;SDS011;37694;51.748;14.326;2023-05-07T00:29:10;7.40;;;4.47;;
51612;SDS011;37694;51.748;14.326;2023-05-07T00:31:35;6.18;;;5.03;;
51612;SDS011;37694;51.748;14.326;2023-05-07T00:34:01;5.95;;;4.32;;
51612;SDS011;37694;51.748;14.326;2023-05-07T00:36:27;5.38;;;4.20;;
51612;SDS011;37694;51.748;14.326;2023-05-07T00:38:54;6.20;;;4.63;;
51612;SDS011;37694;51.748;14.326;2023-05-07T00:41:21;8.52;;;5.25;;
51612;SDS011;37694;51.748;14.326;2023-05-07T00:43:47;11.02;;;5.18;;
51612;SDS011;37694;51.748;14.326;2023-05-07T00:46:13;7.35;;;4.57;;
51612;SDS011;37694;51.748;14.326;2023-05-07T00:48:40;7.10;;;4.50;;
51612;SDS011;37694;51.748;14.326;2023-05-07T00:51:06;5.35;;;4.15;;
51612;SDS011;37694;51.748;14.326;2023-05-07T00:53:32;5.32;;;4.53;;
51612;SDS011;37694;51.748;14.326;2023-05-07T00:55:57;5.60;;;4.38;;
51612;SDS011;37694;51.748;14.326;2023-05-07T00:58:25;5.20;;;4.07;;
51612;SDS011;37694;51.748;14.326;2023-05-07T01:00:51;4.50;;;4.05;;
51612;SDS011;37694;51.748;14.326;2023-05-07T01:03:17;5.50;;;4.38;;
51612;SDS011;37694;51.748;14.326;2023-05-07T01:05:43;5.43;;;4.50;;
51612;SDS011;37694;51.748;14.326;2023-05-07T01:08:10;5.15;;;4.63;;
51612;SDS011;37694;51.748;14.326;2023-05-07T01:10:37;5.43;;;4.03;;
51612;SDS011;37694;51.748;14.326;2023-05-07T01:13:03;6.18;;;3.97;;
51612;SDS011;37694;51.748;14.326;2023-05-07T01:15:29;5.57;;;4.25;;
51612;SDS011;37694;51.748;14.326;2023-05-07T01:17:55;4.93;;;4.43;;
51612;SDS011;37694;51.748;14.326;2023-05-07T01:20:22;5.00;;;4.22;;
51612;SDS011;37694;51.748;14.326;2023-05-07T01:22:48;10.07;;;4.50;;
51612;SDS011;37694;51.748;14.326;2023-05-07T01:25:15;12.43;;;4.18;;
51612;SDS011;37694;51.748;14.326;2023-05-07T01:27:41;8.85;;;3.97;;
51612;SDS011;37694;51.748;14.326;2023-05-07T01:30:07;14.68;;;4.90;;
51612;SDS011;37694;51.748;14.326;2023-05-07T01:32:35;5.85;;;4.28;;
51612;SDS011;37694;51.748;14.326;2023-05-07T01:35:01;8.20;;;3.75;;
51612;SDS011;37694;51.748;14.326;2023-05-07T01:37:30;9.45;;;4.38;;
51612;SDS011;37694;51.748;14.326;2023-05-07T01:39:55;8.40;;;4.60;;
51612;SDS011;37694;51.748;14.326;2023-05-07T01:42:22;11.27;;;4.35;;
51612;SDS011;37694;51.748;14.326;2023-05-07T01:44:48;9.50;;;4.47;;
51612;SDS011;37694;51.748;14.326;2023-05-07T01:47:14;5.15;;;4.20;;
51612;SDS011;37694;51.748;14.326;2023-05-07T01:49:41;7.82;;;4.00;;
51612;SDS011;37694;51.748;14.326;2023-05-07T01:52:08;8.63;;;4.50;;
51612;SDS011;37694;51.748;14.326;2023-05-07T01:54:35;9.02;;;3.90;;
51612;SDS011;37694;51.748;14.326;2023-05-07T01:57:00;7.15;;;3.97;;
51612;SDS011;37694;51.748;14.326;2023-05-07T01:59:26;6.55;;;4.18;;
51612;SDS011;37694;51.748;14.326;2023-05-07T02:01:52;5.90;;;3.67;;
51612;SDS011;37694;51.748;14.326;2023-05-07T02:04:18;7.10;;;3.92;;
51612;SDS011;37694;51.748;14.326;2023-05-07T02:06:43;8.25;;;4.35;;
51612;SDS011;37694;51.748;14.326;2023-05-07T02:09:09;3.78;;;3.47;;
51612;SDS011;37694;51.748;14.326;2023-05-07T02:11:35;4.85;;;3.85;;
51612;SDS011;37694;51.748;14.326;2023-05-07T02:14:00;6.65;;;3.97;;
51612;SDS011;37694;51.748;14.326;2023-05-07T02:16:26;5.15;;;3.67;;
51612;SDS011;37694;51.748;14.326;2023-05-07T02:18:52;4.90;;;4.40;;
51612;SDS011;37694;51.748;14.326;2023-05-07T02:21:17;4.70;;;4.07;;
51612;SDS011;37694;51.748;14.326;2023-05-07T02:23:43;5.75;;;4.25;;
51612;SDS011;37694;51.748;14.326;2023-05-07T02:26:09;4.03;;;3.47;;
51612;SDS011;37694;51.748;14.326;2023-05-07T02:28:36;9.73;;;4.13;;
51612;SDS011;37694;51.748;14.326;2023-05-07T02:31:04;4.75;;;3.45;;
51612;SDS011;37694;51.748;14.326;2023-05-07T02:33:30;5.57;;;4.03;;
51612;SDS011;37694;51.748;14.326;2023-05-07T02:35:56;5.22;;;3.40;;
51612;SDS011;37694;51.748;14.326;2023-05-07T02:38:29;4.05;;;3.50;;
51612;SDS011;37694;51.748;14.326;2023-05-07T02:40:55;10.18;;;3.95;;
51612;SDS011;37694;51.748;14.326;2023-05-07T02:43:21;4.47;;;3.58;;
51612;SDS011;37694;51.748;14.326;2023-05-07T02:45:46;5.10;;;3.72;;
51612;SDS011;37694;51.748;14.326;2023-05-07T02:48:12;6.72;;;3.65;;
51612;SDS011;37694;51.748;14.326;2023-05-07T02:50:37;4.00;;;3.53;;
51612;SDS011;37694;51.748;14.326;2023-05-07T02:53:03;5.63;;;4.43;;
51612;SDS011;37694;51.748;14.326;2023-05-07T02:55:29;9.32;;;3.85;;
51612;SDS011;37694;51.748;14.326;2023-05-07T02:57:55;6.00;;;3.40;;
51612;SDS011;37694;51.748;14.326;2023-05-07T03:00:20;4.70;;;3.58;;
51612;SDS011;37694;51.748;14.326;2023-05-07T03:02:46;4.43;;;3.50;;
51612;SDS011;37694;51.748;14.326;2023-05-07T03:05:12;5.28;;;3.85;;
51612;SDS011;37694;51.748;14.326;2023-05-07T03:07:39;4.25;;;3.53;;
51612;SDS011;37694;51.748;14.326;2023-05-07T03:10:06;4.78;;;3.60;;
51612;SDS011;37694;51.748;14.326;2023-05-07T03:12:31;5.68;;;4.00;;
51612;SDS011;37694;51.748;14.326;2023-05-07T03:14:57;3.47;;;3.15;;
51612;SDS011;37694;51.748;14.326;2023-05-07T03:17:23;4.47;;;3.60;;
51612;SDS011;37694;51.748;14.326;2023-05-07T03:19:48;7.45;;;4.43;;
51612;SDS011;37694;51.748;14.326;2023-05-07T03:22:14;3.78;;;3.25;;
51612;SDS011;37694;51.748;14.326;2023-05-07T03:24:40;7.38;;;3.53;;
51612;SDS011;37694;51.748;14.326;2023-05-07T03:27:05;4.50;;;3.50;;
51612;SDS011;37694;51.748;14.326;2023-05-07T03:29:31;6.10;;;4.00;;
51612;SDS011;37694;51.748;14.326;2023-05-07T03:31:57;5.15;;;3.50;;
51612;SDS011;37694;51.748;14.326;2023-05-07T03:34:22;4.13;;;3.20;;
51612;SDS011;37694;51.748;14.326;2023-05-07T03:36:49;3.45;;;3.15;;
51612;SDS011;37694;51.748;14.326;2023-05-07T03:39:14;4.28;;;3.38;;
51612;SDS011;37694;51.748;14.326;2023-05-07T03:41:40;4.32;;;3.45;;
51612;SDS011;37694;51.748;14.326;2023-05-07T03:44:06;3.47;;;3.17;;
51612;SDS011;37694;51.748;14.326;2023-05-07T03:46:32;5.55;;;3.22;;
51612;SDS011;37694;51.748;14.326;2023-05-07T03:48:58;4.20;;;3.67;;
51612;SDS011;37694;51.748;14.326;2023-05-07T03:51:24;4.30;;;3.50;;
51612;SDS011;37694;51.748;14.326;2023-05-07T03:53:50;3.80;;;3.38;;
51612;SDS011;37694;51.748;14.326;2023-05-07T03:56:18;5.22;;;3.53;;
51612;SDS011;37694;51.748;14.326;2023-05-07T03:58:44;4.95;;;3.72;;
51612;SDS011;37694;51.748;14.326;2023-05-07T04:01:10;3.72;;;3.20;;
51612;SDS011;37694;51.748;14.326;2023-05-07T04:03:36;4.05;;;3.47;;
51612;SDS011;37694;51.748;14.326;2023-05-07T04:06:02;3.38;;;3.08;;
51612;SDS011;37694;51.748;14.326;2023-05-07T04:08:27;3.55;;;3.25;;
51612;SDS011;37694;51.748;14.326;2023-05-07T04:10:56;5.78;;;3.35;;
51612;SDS011;37694;51.748;14.326;2023-05-07T04:13:22;3.67;;;3.38;;
51612;SDS011;37694;51.748;14.326;2023-05-07T04:15:48;6.45;;;3.75;;
51612;SDS011;37694;51.748;14.326;2023-05-07T04:18:14;4.63;;;3.55;;
51612;SDS011;37694;51.748;14.326;2023-05-07T04:20:40;3.33;;;3.03;;
51612;SDS011;37694;51.748;14.326;2023-05-07T04:23:06;5.28;;;3.17;;
51612;SDS011;37694;51.748;14.326;2023-05-07T04:25:32;8.10;;;3.20;;
51612;SDS011;37694;51.748;14.326;2023-05-07T04:27:58;3.88;;;3.50;;
51612;SDS011;37694;51.748;14.326;2023-05-07T04:30:23;9.02;;;3.63;;
51612;SDS011;37694;51.748;14.326;2023-05-07T04:32:50;3.55;;;3.13;;
51612;SDS011;37694;51.748;14.326;2023-05-07T04:35:15;3.83;;;2.85;;
51612;SDS011;37694;51.748;14.326;2023-05-07T04:37:42;4.00;;;3.28;;
51612;SDS011;37694;51.748;14.326;2023-05-07T04:40:08;4.03;;;3.28;;
51612;SDS011;37694;51.748;14.326;2023-05-07T04:42:34;4.35;;;3.42;;
51612;SDS011;37694;51.748;14.326;2023-05-07T04:45:00;4.57;;;3.67;;
51612;SDS011;37694;51.748;14.326;2023-05-07T04:47:27;6.45;;;3.33;;
51612;SDS011;37694;51.748;14.326;2023-05-07T04:49:52;5.88;;;3.20;;
51612;SDS011;37694;51.748;14.326;2023-05-07T04:52:18;5.00;;;2.90;;
51612;SDS011;37694;51.748;14.326;2023-05-07T04:54:44;5.32;;;3.47;;
51612;SDS011;37694;51.748;14.326;2023-05-07T04:57:09;4.90;;;3.55;;
51612;SDS011;37694;51.748;14.326;2023-05-07T04:59:35;8.10;;;3.30;;
51612;SDS011;37694;51.748;14.326;2023-05-07T05:02:00;3.58;;;3.10;;
51612;SDS011;37694;51.748;14.326;2023-05-07T05:04:26;3.67;;;3.10;;
51612;SDS011;37694;51.748;14.326;2023-05-07T05:06:52;3.55;;;3.17;;
51612;SDS011;37694;51.748;14.326;2023-05-07T05:09:18;4.97;;;3.10;;
51612;SDS011;37694;51.748;14.326;2023-05-07T05:11:43;4.05;;;3.00;;
51612;SDS011;37694;51.748;14.326;2023-05-07T05:14:09;3.20;;;2.90;;
51612;SDS011;37694;51.748;14.326;2023-05-07T05:16:35;4.65;;;2.70;;
51612;SDS011;37694;51.748;14.326;2023-05-07T05:19:01;4.60;;;3.38;;
51612;SDS011;37694;51.748;14.326;2023-05-07T05:21:27;7.70;;;3.25;;
51612;SDS011;37694;51.748;14.326;2023-05-07T05:23:53;9.38;;;3.10;;
51612;SDS011;37694;51.748;14.326;2023-05-07T05:26:19;5.93;;;2.97;;
51612;SDS011;37694;51.748;14.326;2023-05-07T05:28:46;4.65;;;3.03;;
51612;SDS011;37694;51.748;14.326;2023-05-07T05:31:12;5.15;;;3.17;;
51612;SDS011;37694;51.748;14.326;2023-05-07T05:33:39;3.50;;;3.20;;
51612;SDS011;37694;51.748;14.326;2023-05-07T05:36:05;3.90;;;3.10;;
51612;SDS011;37694;51.748;14.326;2023-05-07T05:38:31;10.45;;;3.22;;
51612;SDS011;37694;51.748;14.326;2023-05-07T05:40:57;4.45;;;2.65;;
51612;SDS011;37694;51.748;14.326;2023-05-07T05:43:22;3.45;;;2.60;;
51612;SDS011;37694;51.748;14.326;2023-05-07T05:45:48;3.30;;;3.00;;
51612;SDS011;37694;51.748;14.326;2023-05-07T05:48:14;3.45;;;2.70;;
51612;SDS011;37694;51.748;14.326;2023-05-07T05:50:41;4.40;;;2.92;;
51612;SDS011;37694;51.748;14.326;2023-05-07T05:53:07;3.53;;;3.05;;
51612;SDS011;37694;51.748;14.326;2023-05-07T05:55:33;3.40;;;3.10;;
51612;SDS011;37694;51.748;14.326;2023-05-07T05:58:00;3.83;;;3.28;;
51612;SDS011;37694;51.748;14.326;2023-05-07T06:00:26;3.28;;;3.00;;
51612;SDS011;37694;51.748;14.326;2023-05-07T06:02:52;5.68;;;3.17;;
51612;SDS011;37694;51.748;14.326;2023-05-07T06:05:18;4.97;;;3.50;;
51612;SDS011;37694;51.748;14.326;2023-05-07T06:07:43;3.28;;;2.97;;
51612;SDS011;37694;51.748;14.326;2023-05-07T06:10:09;2.95;;;2.63;;
51612;SDS011;37694;51.748;14.326;2023-05-07T06:12:35;3.58;;;3.08;;
51612;SDS011;37694;51.748;14.326;2023-05-07T06:15:01;4.85;;;3.22;;
51612;SDS011;37694;51.748;14.326;2023-05-07T06:17:27;3.70;;;2.80;;
51612;SDS011;37694;51.748;14.326;2023-05-07T06:19:52;4.75;;;3.25;;
51612;SDS011;37694;51.748;14.326;2023-05-07T06:22:18;3.00;;;2.70;;
51612;SDS011;37694;51.748;14.326;2023-05-07T06:24:44;2.95;;;2.70;;
51612;SDS011;37694;51.748;14.326;2023-05-07T06:27:10;3.00;;;2.80;;
51612;SDS011;37694;51.748;14.326;2023-05-07T06:29:35;4.70;;;3.22;;
51612;SDS011;37694;51.748;14.326;2023-05-07T06:34:36;2.90;;;2.70;;
51612;SDS011;37694;51.748;14.326;2023-05-07T06:37:03;7.05;;;3.08;;
51612;SDS011;37694;51.748;14.326;2023-05-07T06:39:29;2.95;;;2.65;;
51612;SDS011;37694;51.748;14.326;2023-05-07T06:41:55;3.45;;;2.75;;
51612;SDS011;37694;51.748;14.326;2023-05-07T06:44:20;5.40;;;2.83;;
51612;SDS011;37694;51.748;14.326;2023-05-07T06:46:46;4.88;;;2.67;;
51612;SDS011;37694;51.748;14.326;2023-05-07T06:49:12;4.32;;;2.95;;
51612;SDS011;37694;51.748;14.326;2023-05-07T06:51:38;3.78;;;2.88;;
51612;SDS011;37694;51.748;14.326;2023-05-07T06:54:03;3.13;;;2.83;;
51612;SDS011;37694;51.748;14.326;2023-05-07T06:56:30;3.92;;;2.67;;
51612;SDS011;37694;51.748;14.326;2023-05-07T06:58:56;5.88;;;3.08;;
51612;SDS011;37694;51.748;14.326;2023-05-07T07:01:21;3.50;;;2.83;;
51612;SDS011;37694;51.748;14.326;2023-05-07T07:03:47;5.13;;;2.85;;
51612;SDS011;37694;51.748;14.326;2023-05-07T07:06:13;2.90;;;2.70;;
51612;SDS011;37694;51.748;14.326;2023-05-07T07:08:39;3.70;;;3.13;;
51612;SDS011;37694;51.748;14.326;2023-05-07T07:11:05;4.07;;;2.65;;
51612;SDS011;37694;51.748;14.326;2023-05-07T07:13:31;2.58;;;2.45;;
51612;SDS011;37694;51.748;14.326;2023-05-07T07:15:56;6.35;;;2.60;;
51612;SDS011;37694;51.748;14.326;2023-05-07T07:18:22;2.60;;;2.40;;
51612;SDS011;37694;51.748;14.326;2023-05-07T07:20:48;2.88;;;2.63;;
51612;SDS011;37694;51.748;14.326;2023-05-07T07:23:14;5.18;;;3.35;;
51612;SDS011;37694;51.748;14.326;2023-05-07T07:25:39;9.02;;;2.85;;
51612;SDS011;37694;51.748;14.326;2023-05-07T07:28:05;7.13;;;2.95;;
51612;SDS011;37694;51.748;14.326;2023-05-07T07:30:31;8.35;;;3.08;;
51612;SDS011;37694;51.748;14.326;2023-05-07T07:32:57;4.32;;;2.40;;
51612;SDS011;37694;51.748;14.326;2023-05-07T07:35:27;5.43;;;2.90;;
51612;SDS011;37694;51.748;14.326;2023-05-07T07:37:56;7.97;;;3.15;;
51612;SDS011;37694;51.748;14.326;2023-05-07T07:40:22;7.15;;;3.00;;
51612;SDS011;37694;51.748;14.326;2023-05-07T07:42:48;11.88;;;2.60;;
51612;SDS011;37694;51.748;14.326;2023-05-07T07:45:14;3.03;;;2.67;;
51612;SDS011;37694;51.748;14.326;2023-05-07T07:47:40;9.98;;;2.78;;
51612;SDS011;37694;51.748;14.326;2023-05-07T07:50:06;5.72;;;3.38;;
51612;SDS011;37694;51.748;14.326;2023-05-07T07:52:32;4.00;;;2.83;;
51612;SDS011;37694;51.748;14.326;2023-05-07T07:54:58;7.32;;;2.75;;
51612;SDS011;37694;51.748;14.326;2023-05-07T07:57:24;6.20;;;3.20;;
51612;SDS011;37694;51.748;14.326;2023-05-07T07:59:50;15.48;;;3.05;;
51612;SDS011;37694;51.748;14.326;2023-05-07T08:02:16;3.90;;;2.65;;
51612;SDS011;37694;51.748;14.326;2023-05-07T08:04:42;4.57;;;2.70;;
51612;SDS011;37694;51.748;14.326;2023-05-07T08:07:09;4.68;;;2.53;;
51612;SDS011;37694;51.748;14.326;2023-05-07T08:09:35;4.50;;;2.80;;
51612;SDS011;37694;51.748;14.326;2023-05-07T08:12:02;5.68;;;3.38;;
51612;SDS011;37694;51.748;14.326;2023-05-07T08:14:28;6.20;;;2.85;;
51612;SDS011;37694;51.748;14.326;2023-05-07T08:16:54;6.07;;;3.33;;
51612;SDS011;37694;51.748;14.326;2023-05-07T08:19:20;14.80;;;2.88;;
51612;SDS011;37694;51.748;14.326;2023-05-07T08:21:46;6.68;;;2.95;;
51612;SDS011;37694;51.748;14.326;2023-05-07T08:24:13;4.20;;;2.50;;
51612;SDS011;37694;51.748;14.326;2023-05-07T08:26:39;4.57;;;2.70;;
51612;SDS011;37694;51.748;14.326;2023-05-07T08:29:05;7.10;;;2.78;;
51612;SDS011;37694;51.748;14.326;2023-05-07T08:31:31;4.28;;;2.70;;
51612;SDS011;37694;51.748;14.326;2023-05-07T08:33:57;3.08;;;2.65;;
51612;SDS011;37694;51.748;14.326;2023-05-07T08:36:24;5.30;;;2.40;;
51612;SDS011;37694;51.748;14.326;2023-05-07T08:38:50;3.67;;;2.75;;
51612;SDS011;37694;51.748;14.326;2023-05-07T08:41:17;8.80;;;3.13;;
51612;SDS011;37694;51.748;14.326;2023-05-07T08:43:42;8.35;;;2.97;;
51612;SDS011;37694;51.748;14.326;2023-05-07T08:46:20;4.75;;;3.00;;
51612;SDS011;37694;51.748;14.326;2023-05-07T08:48:50;14.00;;;3.30;;
51612;SDS011;37694;51.748;14.326;2023-05-07T08:51:20;8.25;;;2.90;;
51612;SDS011;37694;51.748;14.326;2023-05-07T08:53:47;17.67;;;3.95;;
51612;SDS011;37694;51.748;14.326;2023-05-07T08:56:14;10.70;;;3.20;;
51612;SDS011;37694;51.748;14.326;2023-05-07T08:58:42;5.53;;;3.08;;
51612;SDS011;37694;51.748;14.326;2023-05-07T09:01:09;8.57;;;3.03;;
51612;SDS011;37694;51.748;14.326;2023-05-07T09:03:39;8.13;;;3.35;;
51612;SDS011;37694;51.748;14.326;2023-05-07T09:06:05;12.32;;;3.28;;
51612;SDS011;37694;51.748;14.326;2023-05-07T09:08:32;9.23;;;3.42;;
51612;SDS011;37694;51.748;14.326;2023-05-07T09:10:59;15.75;;;2.70;;
51612;SDS011;37694;51.748;14.326;2023-05-07T09:13:25;11.13;;;3.53;;
51612;SDS011;37694;51.748;14.326;2023-05-07T09:15:52;11.75;;;3.45;;
51612;SDS011;37694;51.748;14.326;2023-05-07T09:18:17;12.93;;;3.47;;
51612;SDS011;37694;51.748;14.326;2023-05-07T09:20:43;14.32;;;3.22;;
51612;SDS011;37694;51.748;14.326;2023-05-07T09:23:09;11.82;;;2.97;;
51612;SDS011;37694;51.748;14.326;2023-05-07T09:25:35;6.30;;;2.47;;
51612;SDS011;37694;51.748;14.326;2023-05-07T09:28:02;12.63;;;2.95;;
51612;SDS011;37694;51.748;14.326;2023-05-07T09:30:29;11.55;;;3.83;;
51612;SDS011;37694;51.748;14.326;2023-05-07T09:32:56;10.60;;;3.22;;
51612;SDS011;37694;51.748;14.326;2023-05-07T09:35:26;16.75;;;3.15;;
51612;SDS011;37694;51.748;14.326;2023-05-07T09:37:55;9.07;;;3.47;;
51612;SDS011;37694;51.748;14.326;2023-05-07T09:42:48;25.10;;;3.40;;
51612;SDS011;37694;51.748;14.326;2023-05-07T09:45:15;6.55;;;3.00;;
51612;SDS011;37694;51.748;14.326;2023-05-07T09:47:42;13.18;;;3.10;;
51612;SDS011;37694;51.748;14.326;2023-05-07T09:50:11;24.10;;;4.18;;
51612;SDS011;37694;51.748;14.326;2023-05-07T09:52:40;10.32;;;3.00;;
51612;SDS011;37694;51.748;14.326;2023-05-07T09:55:07;13.10;;;3.72;;
51612;SDS011;37694;51.748;14.326;2023-05-07T09:57:34;6.63;;;3.78;;
51612;SDS011;37694;51.748;14.326;2023-05-07T10:00:01;10.40;;;4.05;;
51612;SDS011;37694;51.748;14.326;2023-05-07T10:02:33;11.45;;;3.95;;
51612;SDS011;37694;51.748;14.326;2023-05-07T10:05:00;7.13;;;3.20;;
51612;SDS011;37694;51.748;14.326;2023-05-07T10:07:27;8.85;;;3.78;;
51612;SDS011;37694;51.748;14.326;2023-05-07T10:09:53;7.68;;;3.28;;
51612;SDS011;37694;51.748;14.326;2023-05-07T10:12:19;8.65;;;3.92;;
51612;SDS011;37694;51.748;14.326;2023-05-07T10:14:46;11.63;;;3.20;;
51612;SDS011;37694;51.748;14.326;2023-05-07T10:17:13;8.60;;;3.58;;
51612;SDS011;37694;51.748;14.326;2023-05-07T10:19:40;9.57;;;3.33;;
51612;SDS011;37694;51.748;14.326;2023-05-07T10:22:07;10.90;;;3.53;;
51612;SDS011;37694;51.748;14.326;2023-05-07T10:24:34;11.10;;;3.53;;
51612;SDS011;37694;51.748;14.326;2023-05-07T10:27:02;9.98;;;3.53;;
51612;SDS011;37694;51.748;14.326;2023-05-07T10:34:50;14.88;;;2.95;;
51612;SDS011;37694;51.748;14.326;2023-05-07T10:37:20;5.30;;;2.83;;
51612;SDS011;37694;51.748;14.326;2023-05-07T10:39:46;6.40;;;3.63;;
51612;SDS011;37694;51.748;14.326;2023-05-07T10:42:14;7.22;;;3.40;;
51612;SDS011;37694;51.748;14.326;2023-05-07T10:44:40;10.85;;;2.90;;
51612;SDS011;37694;51.748;14.326;2023-05-07T10:47:09;5.00;;;2.90;;
51612;SDS011;37694;51.748;14.326;2023-05-07T10:49:38;6.60;;;2.75;;
51612;SDS011;37694;51.748;14.326;2023-05-07T10:52:31;5.90;;;2.67;;
51612;SDS011;37694;51.748;14.326;2023-05-07T10:55:18;7.55;;;3.03;;
51612;SDS011;37694;51.748;14.326;2023-05-07T10:57:46;9.38;;;2.78;;
51612;SDS011;37694;51.748;14.326;2023-05-07T11:05:25;8.43;;;2.95;;
51612;SDS011;37694;51.748;14.326;2023-05-07T11:07:55;5.72;;;2.83;;
51612;SDS011;37694;51.748;14.326;2023-05-07T11:10:22;9.85;;;3.03;;
51612;SDS011;37694;51.748;14.326;2023-05-07T11:15:36;8.82;;;2.95;;
51612;SDS011;37694;51.748;14.326;2023-05-07T11:18:03;4.35;;;2.08;;
51612;SDS011;37694;51.748;14.326;2023-05-07T11:26:07;7.00;;;2.90;;
51612;SDS011;37694;51.748;14.326;2023-05-07T11:28:37;4.60;;;2.63;;
51612;SDS011;37694;51.748;14.326;2023-05-07T11:31:06;7.63;;;2.95;;
51612;SDS011;37694;51.748;14.326;2023-05-07T11:33:33;13.75;;;2.85;;
51612;SDS011;37694;51.748;14.326;2023-05-07T11:35:59;9.23;;;3.15;;
51612;SDS011;37694;51.748;14.326;2023-05-07T11:38:27;8.13;;;2.38;;
51612;SDS011;37694;51.748;14.326;2023-05-07T11:40:55;9.52;;;2.70;;
51612;SDS011;37694;51.748;14.326;2023-05-07T11:43:23;19.00;;;2.83;;
51612;SDS011;37694;51.748;14.326;2023-05-07T11:45:49;17.35;;;3.47;;
51612;SDS011;37694;51.748;14.326;2023-05-07T11:48:15;6.80;;;2.90;;
51612;SDS011;37694;51.748;14.326;2023-05-07T11:50:51;12.43;;;3.20;;
51612;SDS011;37694;51.748;14.326;2023-05-07T11:53:34;12.07;;;3.33;;
51612;SDS011;37694;51.748;14.326;2023-05-07T11:56:05;11.57;;;3.20;;
51612;SDS011;37694;51.748;14.326;2023-05-07T11:58:35;19.02;;;3.28;;
51612;SDS011;37694;51.748;14.326;2023-05-07T12:01:01;10.55;;;3.10;;
51612;SDS011;37694;51.748;14.326;2023-05-07T12:03:27;13.38;;;3.03;;
51612;SDS011;37694;51.748;14.326;2023-05-07T12:05:53;7.35;;;2.60;;
51612;SDS011;37694;51.748;14.326;2023-05-07T12:08:20;10.38;;;2.75;;
51612;SDS011;37694;51.748;14.326;2023-05-07T12:10:50;12.52;;;3.00;;
51612;SDS011;37694;51.748;14.326;2023-05-07T12:13:20;5.93;;;2.47;;
51612;SDS011;37694;51.748;14.326;2023-05-07T12:15:51;15.18;;;3.28;;
51612;SDS011;37694;51.748;14.326;2023-05-07T12:18:17;20.17;;;4.13;;
51612;SDS011;37694;51.748;14.326;2023-05-07T12:20:44;6.82;;;3.08;;
51612;SDS011;37694;51.748;14.326;2023-05-07T12:23:10;5.72;;;2.95;;
51612;SDS011;37694;51.748;14.326;2023-05-07T12:25:39;8.68;;;3.00;;
51612;SDS011;37694;51.748;14.326;2023-05-07T12:28:16;7.22;;;2.55;;
51612;SDS011;37694;51.748;14.326;2023-05-07T12:30:43;14.35;;;3.60;;
51612;SDS011;37694;51.748;14.326;2023-05-07T12:33:10;8.00;;;2.78;;
51612;SDS011;37694;51.748;14.326;2023-05-07T12:35:40;5.82;;;2.65;;
51612;SDS011;37694;51.748;14.326;2023-05-07T12:38:16;5.63;;;2.95;;
51612;SDS011;37694;51.748;14.326;2023-05-07T12:43:15;9.05;;;2.85;;
51612;SDS011;37694;51.748;14.326;2023-05-07T12:45:50;9.75;;;2.55;;
51612;SDS011;37694;51.748;14.326;2023-05-07T12:48:17;13.38;;;2.88;;
51612;SDS011;37694;51.748;14.326;2023-05-07T12:50:44;9.40;;;2.80;;
51612;SDS011;37694;51.748;14.326;2023-05-07T12:53:10;10.68;;;2.92;;
51612;SDS011;37694;51.748;14.326;2023-05-07T12:55:47;9.52;;;3.47;;
51612;SDS011;37694;51.748;14.326;2023-05-07T12:58:18;14.52;;;3.30;;
51612;SDS011;37694;51.748;14.326;2023-05-07T13:00:44;7.97;;;2.90;;
51612;SDS011;37694;51.748;14.326;2023-05-07T13:03:12;14.20;;;3.00;;
51612;SDS011;37694;51.748;14.326;2023-05-07T13:08:27;16.38;;;3.97;;
51612;SDS011;37694;51.748;14.326;2023-05-07T13:10:53;8.45;;;3.35;;
51612;SDS011;37694;51.748;14.326;2023-05-07T13:13:19;5.30;;;2.75;;
51612;SDS011;37694;51.748;14.326;2023-05-07T13:15:46;8.77;;;3.42;;
51612;SDS011;37694;51.748;14.326;2023-05-07T13:18:12;10.48;;;3.13;;
51612;SDS011;37694;51.748;14.326;2023-05-07T13:20:37;14.90;;;3.22;;
51612;SDS011;37694;51.748;14.326;2023-05-07T13:23:03;9.52;;;2.63;;
51612;SDS011;37694;51.748;14.326;2023-05-07T13:25:29;8.38;;;3.45;;
51612;SDS011;37694;51.748;14.326;2023-05-07T13:27:58;12.07;;;2.60;;
51612;SDS011;37694;51.748;14.326;2023-05-07T13:30:24;12.20;;;2.97;;
51612;SDS011;37694;51.748;14.326;2023-05-07T13:32:50;9.88;;;3.20;;
51612;SDS011;37694;51.748;14.326;2023-05-07T13:35:18;10.88;;;3.33;;
51612;SDS011;37694;51.748;14.326;2023-05-07T13:37:44;8.48;;;2.88;;
51612;SDS011;37694;51.748;14.326;2023-05-07T13:40:10;4.03;;;2.78;;
51612;SDS011;37694;51.748;14.326;2023-05-07T13:42:36;7.20;;;3.20;;
51612;SDS011;37694;51.748;14.326;2023-05-07T13:45:01;22.13;;;3.03;;
51612;SDS011;37694;51.748;14.326;2023-05-07T13:47:30;12.98;;;3.17;;
51612;SDS011;37694;51.748;14.326;2023-05-07T13:49:55;25.05;;;3.90;;
51612;SDS011;37694;51.748;14.326;2023-05-07T13:52:21;7.00;;;2.92;;
51612;SDS011;37694;51.748;14.326;2023-05-07T13:54:47;11.18;;;3.40;;
51612;SDS011;37694;51.748;14.326;2023-05-07T13:57:12;4.10;;;2.70;;
51612;SDS011;37694;51.748;14.326;2023-05-07T13:59:38;4.75;;;2.40;;
51612;SDS011;37694;51.748;14.326;2023-05-07T14:02:04;10.65;;;2.90;;
51612;SDS011;37694;51.748;14.326;2023-05-07T14:04:30;7.80;;;2.45;;
51612;SDS011;37694;51.748;14.326;2023-05-07T14:06:56;7.40;;;2.90;;
51612;SDS011;37694;51.748;14.326;2023-05-07T14:09:21;9.25;;;3.40;;
51612;SDS011;37694;51.748;14.326;2023-05-07T14:11:47;9.10;;;2.85;;
51612;SDS011;37694;51.748;14.326;2023-05-07T14:14:16;9.93;;;3.17;;
51612;SDS011;37694;51.748;14.326;2023-05-07T14:16:42;7.38;;;2.47;;
51612;SDS011;37694;51.748;14.326;2023-05-07T14:19:08;5.22;;;2.40;;
51612;SDS011;37694;51.748;14.326;2023-05-07T14:21:33;4.25;;;2.30;;
51612;SDS011;37694;51.748;14.326;2023-05-07T14:23:59;8.30;;;2.33;;
51612;SDS011;37694;51.748;14.326;2023-05-07T14:26:25;6.40;;;2.90;;
51612;SDS011;37694;51.748;14.326;2023-05-07T14:28:52;5.28;;;2.90;;
51612;SDS011;37694;51.748;14.326;2023-05-07T14:31:19;8.38;;;3.10;;
51612;SDS011;37694;51.748;14.326;2023-05-07T14:33:46;4.47;;;2.42;;
51612;SDS011;37694;51.748;14.326;2023-05-07T14:36:11;8.50;;;2.42;;
51612;SDS011;37694;51.748;14.326;2023-05-07T14:38:37;4.50;;;3.05;;
51612;SDS011;37694;51.748;14.326;2023-05-07T14:41:03;8.70;;;2.67;;
51612;SDS011;37694;51.748;14.326;2023-05-07T14:43:28;6.53;;;3.28;;
51612;SDS011;37694;51.748;14.326;2023-05-07T14:45:54;5.68;;;2.88;;
51612;SDS011;37694;51.748;14.326;2023-05-07T14:48:20;4.95;;;2.53;;
51612;SDS011;37694;51.748;14.326;2023-05-07T14:50:49;11.40;;;2.63;;
51612;SDS011;37694;51.748;14.326;2023-05-07T14:53:15;4.38;;;2.72;;
51612;SDS011;37694;51.748;14.326;2023-05-07T14:55:40;4.68;;;2.67;;
51612;SDS011;37694;51.748;14.326;2023-05-07T14:58:06;5.28;;;2.58;;